sensor_id;sensor_type;location;lat;lon;timestamp;pressure;altitude;pressure_sealevel;temperature;humidity
60489;BME280;46331;49.252;8.904;2024-01-30T00:00:15;101126.84;;;6.86;57.86
60489;BME280;46331;49.252;8.904;2024-01-30T00:00:57;101125.84;;;6.87;57.18
60489;BME280;46331;49.252;8.904;2024-01-30T00:01:37;101129.00;;;6.82;57.27
60489;BME280;46331;49.252;8.904;2024-01-30T00:02:18;101133.19;;;6.76;57.17
60489;BME280;46331;49.252;8.904;2024-01-30T00:02:58;101128.28;;;6.73;57.42
60489;BME280;46331;49.252;8.904;2024-01-30T00:03:39;101125.63;;;6.73;57.51
60489;BME280;46331;49.252;8.904;2024-01-30T00:04:19;101121.72;;;6.69;57.24
60489;BME280;46331;49.252;8.904;2024-01-30T00:05:00;101127.97;;;6.68;57.14
60489;BME280;46331;49.252;8.904;2024-01-30T00:05:40;101121.44;;;6.64;57.51
60489;BME280;46331;49.252;8.904;2024-01-30T00:06:21;101116.34;;;6.62;57.65
60489;BME280;46331;49.252;8.904;2024-01-30T00:07:02;101128.66;;;6.62;57.76
60489;BME280;46331;49.252;8.904;2024-01-30T00:07:43;101119.31;;;6.59;58.02
60489;BME280;46331;49.252;8.904;2024-01-30T00:08:24;101127.09;;;6.53;57.76
60489;BME280;46331;49.252;8.904;2024-01-30T00:09:04;101118.19;;;6.54;57.95
60489;BME280;46331;49.252;8.904;2024-01-30T00:09:47;101118.13;;;6.62;58.33
60489;BME280;46331;49.252;8.904;2024-01-30T00:10:28;101115.56;;;6.54;58.39
60489;BME280;46331;49.252;8.904;2024-01-30T00:11:09;101123.47;;;6.54;57.90
60489;BME280;46331;49.252;8.904;2024-01-30T00:11:49;101123.47;;;6.54;58.23
60489;BME280;46331;49.252;8.904;2024-01-30T00:12:30;101109.94;;;6.57;58.50
60489;BME280;46331;49.252;8.904;2024-01-30T00:13:12;101121.78;;;6.61;58.54
60489;BME280;46331;49.252;8.904;2024-01-30T00:13:54;101122.41;;;6.63;58.21
60489;BME280;46331;49.252;8.904;2024-01-30T00:14:38;101121.44;;;6.64;57.97
60489;BME280;46331;49.252;8.904;2024-01-30T00:15:18;101123.03;;;6.65;57.96
60489;BME280;46331;49.252;8.904;2024-01-30T00:15:59;101121.25;;;6.66;58.37
60489;BME280;46331;49.252;8.904;2024-01-30T00:16:39;101123.34;;;6.70;58.41
60489;BME280;46331;49.252;8.904;2024-01-30T00:17:20;101122.16;;;6.73;58.09
60489;BME280;46331;49.252;8.904;2024-01-30T00:18:01;101121.53;;;6.71;57.66
60489;BME280;46331;49.252;8.904;2024-01-30T00:18:41;101126.28;;;6.75;57.88
60489;BME280;46331;49.252;8.904;2024-01-30T00:19:22;101127.75;;;6.78;58.40
60489;BME280;46331;49.252;8.904;2024-01-30T00:20:03;101129.19;;;6.80;57.70
60489;BME280;46331;49.252;8.904;2024-01-30T00:20:45;101129.84;;;6.83;57.81
60489;BME280;46331;49.252;8.904;2024-01-30T00:21:26;101121.94;;;6.83;58.00
60489;BME280;46331;49.252;8.904;2024-01-30T00:22:07;101128.56;;;6.78;57.13
60489;BME280;46331;49.252;8.904;2024-01-30T00:22:48;101132.47;;;6.83;58.09
60489;BME280;46331;49.252;8.904;2024-01-30T00:23:28;101130.47;;;6.85;58.13
60489;BME280;46331;49.252;8.904;2024-01-30T00:24:09;101128.84;;;6.84;58.07
60489;BME280;46331;49.252;8.904;2024-01-30T00:24:49;101134.94;;;6.84;57.69
60489;BME280;46331;49.252;8.904;2024-01-30T00:25:30;101131.66;;;6.82;57.65
60489;BME280;46331;49.252;8.904;2024-01-30T00:26:10;101132.66;;;6.81;57.39
60489;BME280;46331;49.252;8.904;2024-01-30T00:26:51;101124.75;;;6.81;57.18
60489;BME280;46331;49.252;8.904;2024-01-30T00:27:32;101131.00;;;6.80;57.01
60489;BME280;46331;49.252;8.904;2024-01-30T00:28:13;101131.19;;;6.78;56.83
60489;BME280;46331;49.252;8.904;2024-01-30T00:28:53;101128.72;;;6.77;56.84
60489;BME280;46331;49.252;8.904;2024-01-30T00:29:34;101127.44;;;6.73;56.21
60489;BME280;46331;49.252;8.904;2024-01-30T00:30:14;101126.16;;;6.69;56.31
60489;BME280;46331;49.252;8.904;2024-01-30T00:30:55;101125.69;;;6.65;56.53
60489;BME280;46331;49.252;8.904;2024-01-30T00:31:36;101128.66;;;6.62;56.38
60489;BME280;46331;49.252;8.904;2024-01-30T00:32:16;101125.22;;;6.61;56.84
60489;BME280;46331;49.252;8.904;2024-01-30T00:32:59;101125.84;;;6.63;57.76
60489;BME280;46331;49.252;8.904;2024-01-30T00:33:40;101126.53;;;6.66;57.56
60489;BME280;46331;49.252;8.904;2024-01-30T00:34:21;101132.34;;;6.76;57.49
60489;BME280;46331;49.252;8.904;2024-01-30T00:35:01;101130.31;;;6.86;56.94
60489;BME280;46331;49.252;8.904;2024-01-30T00:35:42;101133.72;;;6.72;57.60
60489;BME280;46331;49.252;8.904;2024-01-30T00:36:22;101136.34;;;6.72;57.90
60489;BME280;46331;49.252;8.904;2024-01-30T00:37:03;101137.81;;;6.74;58.04
60489;BME280;46331;49.252;8.904;2024-01-30T00:37:43;101139.63;;;6.74;57.58
60489;BME280;46331;49.252;8.904;2024-01-30T00:38:24;101135.16;;;6.74;57.95
60489;BME280;46331;49.252;8.904;2024-01-30T00:39:05;101126.91;;;6.77;57.41
60489;BME280;46331;49.252;8.904;2024-01-30T00:39:47;101129.53;;;6.77;58.05
60489;BME280;46331;49.252;8.904;2024-01-30T00:40:27;101124.94;;;6.79;57.63
60489;BME280;46331;49.252;8.904;2024-01-30T00:41:08;101128.38;;;6.80;57.33
60489;BME280;46331;49.252;8.904;2024-01-30T00:41:49;101126.72;;;6.79;57.54
60489;BME280;46331;49.252;8.904;2024-01-30T00:42:29;101136.47;;;6.78;57.71
60489;BME280;46331;49.252;8.904;2024-01-30T00:43:10;101129.63;;;6.69;56.79
60489;BME280;46331;49.252;8.904;2024-01-30T00:43:51;101134.34;;;6.74;57.72
60489;BME280;46331;49.252;8.904;2024-01-30T00:44:31;101131.72;;;6.74;57.48
60489;BME280;46331;49.252;8.904;2024-01-30T00:45:15;101130.59;;;6.68;57.35
60489;BME280;46331;49.252;8.904;2024-01-30T00:45:56;101126.34;;;6.67;57.77
60489;BME280;46331;49.252;8.904;2024-01-30T00:46:38;101127.69;;;6.63;57.13
60489;BME280;46331;49.252;8.904;2024-01-30T00:47:18;101125.50;;;6.67;57.78
60489;BME280;46331;49.252;8.904;2024-01-30T00:47:59;101133.94;;;6.62;57.69
60489;BME280;46331;49.252;8.904;2024-01-30T00:48:39;101128.38;;;6.57;57.46
60489;BME280;46331;49.252;8.904;2024-01-30T00:49:20;101123.13;;;6.57;56.84
60489;BME280;46331;49.252;8.904;2024-01-30T00:50:00;101126.91;;;6.54;57.26
60489;BME280;46331;49.252;8.904;2024-01-30T00:50:41;101126.28;;;6.52;56.83
60489;BME280;46331;49.252;8.904;2024-01-30T00:51:21;101132.19;;;6.54;57.65
60489;BME280;46331;49.252;8.904;2024-01-30T00:52:02;101131.38;;;6.54;57.59
60489;BME280;46331;49.252;8.904;2024-01-30T00:52:42;101128.09;;;6.52;57.58
60489;BME280;46331;49.252;8.904;2024-01-30T00:53:26;101129.44;;;6.48;57.28
60489;BME280;46331;49.252;8.904;2024-01-30T00:54:06;101132.88;;;6.48;57.06
60489;BME280;46331;49.252;8.904;2024-01-30T00:54:47;101128.97;;;6.44;56.82
60489;BME280;46331;49.252;8.904;2024-01-30T00:55:27;101136.72;;;6.46;56.54
60489;BME280;46331;49.252;8.904;2024-01-30T00:56:08;101134.44;;;6.42;56.79
60489;BME280;46331;49.252;8.904;2024-01-30T00:56:48;101128.84;;;6.37;57.04
60489;BME280;46331;49.252;8.904;2024-01-30T00:57:29;101126.19;;;6.37;57.14
60489;BME280;46331;49.252;8.904;2024-01-30T00:58:09;101128.84;;;6.37;56.95
60489;BME280;46331;49.252;8.904;2024-01-30T00:58:50;101139.25;;;6.31;57.12
60489;BME280;46331;49.252;8.904;2024-01-30T00:59:30;101137.78;;;6.28;57.84
60489;BME280;46331;49.252;8.904;2024-01-30T01:00:11;101137.78;;;6.28;57.38
60489;BME280;46331;49.252;8.904;2024-01-30T01:00:52;101139.16;;;6.16;57.73
60489;BME280;46331;49.252;8.904;2024-01-30T01:01:33;101138.53;;;6.14;57.66
60489;BME280;46331;49.252;8.904;2024-01-30T01:02:14;101134.59;;;6.09;57.51
60489;BME280;46331;49.252;8.904;2024-01-30T01:02:55;101130.97;;;6.11;57.99
60489;BME280;46331;49.252;8.904;2024-01-30T01:03:36;101137.09;;;6.03;57.81
60489;BME280;46331;49.252;8.904;2024-01-30T01:04:16;101131.03;;;6.02;58.00
60489;BME280;46331;49.252;8.904;2024-01-30T01:04:57;101126.09;;;5.99;58.22
60489;BME280;46331;49.252;8.904;2024-01-30T01:05:38;101137.28;;;5.93;58.35
60489;BME280;46331;49.252;8.904;2024-01-30T01:06:19;101132.84;;;5.94;58.19
60489;BME280;46331;49.252;8.904;2024-01-30T01:07:00;101132.38;;;5.90;58.12
60489;BME280;46331;49.252;8.904;2024-01-30T01:07:40;101134.34;;;5.88;58.62
60489;BME280;46331;49.252;8.904;2024-01-30T01:08:22;101137.31;;;5.85;58.41
60489;BME280;46331;49.252;8.904;2024-01-30T01:09:03;101139.94;;;5.85;58.80
60489;BME280;46331;49.252;8.904;2024-01-30T01:09:45;101140.78;;;5.85;58.81
60489;BME280;46331;49.252;8.904;2024-01-30T01:10:26;101135.50;;;5.85;58.83
60489;BME280;46331;49.252;8.904;2024-01-30T01:11:07;101134.53;;;5.78;58.70
60489;BME280;46331;49.252;8.904;2024-01-30T01:11:48;101133.72;;;5.78;58.75
60489;BME280;46331;49.252;8.904;2024-01-30T01:12:28;101135.69;;;5.76;58.85
60489;BME280;46331;49.252;8.904;2024-01-30T01:13:09;101125.50;;;5.81;58.98
60489;BME280;46331;49.252;8.904;2024-01-30T01:13:49;101133.22;;;5.82;59.40
60489;BME280;46331;49.252;8.904;2024-01-30T01:14:30;101131.06;;;5.86;59.09
60489;BME280;46331;49.252;8.904;2024-01-30T01:15:11;101136.31;;;5.86;58.90
60489;BME280;46331;49.252;8.904;2024-01-30T01:15:51;101131.06;;;5.86;59.02
60489;BME280;46331;49.252;8.904;2024-01-30T01:16:33;101134.50;;;5.95;59.03
60489;BME280;46331;49.252;8.904;2024-01-30T01:17:13;101133.66;;;5.94;59.23
60489;BME280;46331;49.252;8.904;2024-01-30T01:17:54;101133.19;;;5.90;58.68
60489;BME280;46331;49.252;8.904;2024-01-30T01:18:34;101133.66;;;5.94;58.54
60489;BME280;46331;49.252;8.904;2024-01-30T01:19:15;101137.28;;;5.93;58.59
60489;BME280;46331;49.252;8.904;2024-01-30T01:19:57;101130.53;;;5.99;58.42
60489;BME280;46331;49.252;8.904;2024-01-30T01:20:37;101128.06;;;5.97;59.24
60489;BME280;46331;49.252;8.904;2024-01-30T01:21:18;101135.97;;;5.97;58.89
60489;BME280;46331;49.252;8.904;2024-01-30T01:21:58;101142.56;;;5.93;58.47
60489;BME280;46331;49.252;8.904;2024-01-30T01:22:39;101135.28;;;5.95;58.40
60489;BME280;46331;49.252;8.904;2024-01-30T01:23:20;101140.91;;;5.92;58.64
60489;BME280;46331;49.252;8.904;2024-01-30T01:24:01;101145.19;;;5.93;58.68
60489;BME280;46331;49.252;8.904;2024-01-30T01:24:41;101139.75;;;5.95;58.57
60489;BME280;46331;49.252;8.904;2024-01-30T01:25:22;101139.09;;;5.93;58.67
60489;BME280;46331;49.252;8.904;2024-01-30T01:26:02;101144.06;;;5.87;58.40
60489;BME280;46331;49.252;8.904;2024-01-30T01:26:43;101139.59;;;5.88;58.34
60489;BME280;46331;49.252;8.904;2024-01-30T01:27:23;101137.66;;;5.82;58.56
60489;BME280;46331;49.252;8.904;2024-01-30T01:28:04;101138.16;;;5.85;58.56
60489;BME280;46331;49.252;8.904;2024-01-30T01:28:45;101135.00;;;5.82;58.67
60489;BME280;46331;49.252;8.904;2024-01-30T01:29:25;101136.66;;;5.83;58.81
60489;BME280;46331;49.252;8.904;2024-01-30T01:30:10;101143.25;;;5.87;59.04
60489;BME280;46331;49.252;8.904;2024-01-30T01:30:51;101138.00;;;5.79;58.92
60489;BME280;46331;49.252;8.904;2024-01-30T01:31:32;101139.00;;;5.78;59.00
60489;BME280;46331;49.252;8.904;2024-01-30T01:32:12;101137.66;;;5.82;59.06
60489;BME280;46331;49.252;8.904;2024-01-30T01:32:53;101139.81;;;5.78;59.21
60489;BME280;46331;49.252;8.904;2024-01-30T01:33:37;101139.63;;;5.80;58.60
60489;BME280;46331;49.252;8.904;2024-01-30T01:34:18;101144.72;;;5.81;59.10
60489;BME280;46331;49.252;8.904;2024-01-30T01:34:58;101137.66;;;5.82;58.96
60489;BME280;46331;49.252;8.904;2024-01-30T01:35:39;101135.84;;;5.82;58.91
60489;BME280;46331;49.252;8.904;2024-01-30T01:36:20;101130.94;;;5.79;58.70
60489;BME280;46331;49.252;8.904;2024-01-30T01:37:01;101127.13;;;5.82;58.56
60489;BME280;46331;49.252;8.904;2024-01-30T01:37:41;101136.03;;;5.81;58.61
60489;BME280;46331;49.252;8.904;2024-01-30T01:38:22;101141.13;;;5.82;58.80
60489;BME280;46331;49.252;8.904;2024-01-30T01:39:03;101136.38;;;5.78;58.48
60489;BME280;46331;49.252;8.904;2024-01-30T01:39:43;101135.34;;;5.79;58.23
60489;BME280;46331;49.252;8.904;2024-01-30T01:40:24;101138.31;;;5.84;59.00
60489;BME280;46331;49.252;8.904;2024-01-30T01:41:05;101132.72;;;5.79;58.73
60489;BME280;46331;49.252;8.904;2024-01-30T01:41:45;101133.22;;;5.82;58.55
60489;BME280;46331;49.252;8.904;2024-01-30T01:42:26;101139.47;;;5.81;58.10
60489;BME280;46331;49.252;8.904;2024-01-30T01:43:07;101138.50;;;5.82;58.28
60489;BME280;46331;49.252;8.904;2024-01-30T01:43:47;101133.41;;;5.81;58.81
60489;BME280;46331;49.252;8.904;2024-01-30T01:44:28;101135.00;;;5.82;58.77
60489;BME280;46331;49.252;8.904;2024-01-30T01:45:08;101138.50;;;5.82;58.56
60489;BME280;46331;49.252;8.904;2024-01-30T01:45:49;101138.66;;;5.81;58.37
60489;BME280;46331;49.252;8.904;2024-01-30T01:46:32;101130.38;;;5.92;58.81
60489;BME280;46331;49.252;8.904;2024-01-30T01:47:14;101133.66;;;5.94;58.82
60489;BME280;46331;49.252;8.904;2024-01-30T01:47:55;101134.00;;;5.91;58.81
60489;BME280;46331;49.252;8.904;2024-01-30T01:48:36;101134.66;;;5.93;58.49
60489;BME280;46331;49.252;8.904;2024-01-30T01:49:17;101126.75;;;5.93;58.75
60489;BME280;46331;49.252;8.904;2024-01-30T01:49:59;101125.56;;;5.96;58.64
60489;BME280;46331;49.252;8.904;2024-01-30T01:50:40;101130.84;;;6.04;58.90
60489;BME280;46331;49.252;8.904;2024-01-30T01:51:22;101132.31;;;6.06;58.76
60489;BME280;46331;49.252;8.904;2024-01-30T01:52:05;101129.03;;;6.04;58.59
60489;BME280;46331;49.252;8.904;2024-01-30T01:52:47;101134.41;;;6.11;58.28
60489;BME280;46331;49.252;8.904;2024-01-30T01:53:28;101133.66;;;6.02;58.34
60489;BME280;46331;49.252;8.904;2024-01-30T01:54:09;101132.66;;;6.03;57.89
60489;BME280;46331;49.252;8.904;2024-01-30T01:54:49;101128.56;;;6.01;57.69
60489;BME280;46331;49.252;8.904;2024-01-30T01:55:30;101131.19;;;6.01;57.84
60489;BME280;46331;49.252;8.904;2024-01-30T01:56:12;101125.25;;;5.99;58.59
60489;BME280;46331;49.252;8.904;2024-01-30T01:56:53;101129.72;;;5.98;58.25
60489;BME280;46331;49.252;8.904;2024-01-30T01:57:33;101130.03;;;5.95;57.78
60489;BME280;46331;49.252;8.904;2024-01-30T01:58:14;101128.38;;;5.94;58.24
60489;BME280;46331;49.252;8.904;2024-01-30T01:58:55;101128.38;;;5.94;58.14
60489;BME280;46331;49.252;8.904;2024-01-30T01:59:35;101129.56;;;5.91;57.79
60489;BME280;46331;49.252;8.904;2024-01-30T02:00:17;101131.19;;;6.01;58.19
60489;BME280;46331;49.252;8.904;2024-01-30T02:00:59;101135.00;;;5.90;57.84
60489;BME280;46331;49.252;8.904;2024-01-30T02:01:40;101127.09;;;5.90;57.53
60489;BME280;46331;49.252;8.904;2024-01-30T02:02:26;101136.31;;;5.86;57.70
60489;BME280;46331;49.252;8.904;2024-01-30T02:03:10;101126.94;;;5.83;57.96
60489;BME280;46331;49.252;8.904;2024-01-30T02:03:52;101124.31;;;5.83;57.72
60489;BME280;46331;49.252;8.904;2024-01-30T02:04:33;101129.75;;;5.82;57.58
60489;BME280;46331;49.252;8.904;2024-01-30T02:05:15;101131.88;;;5.86;58.06
60489;BME280;46331;49.252;8.904;2024-01-30T02:05:56;101129.91;;;5.80;57.91
60489;BME280;46331;49.252;8.904;2024-01-30T02:06:37;101128.31;;;5.79;58.27
60489;BME280;46331;49.252;8.904;2024-01-30T02:07:18;101130.94;;;5.79;58.46
60489;BME280;46331;49.252;8.904;2024-01-30T02:07:58;101124.47;;;5.82;58.61
60489;BME280;46331;49.252;8.904;2024-01-30T02:08:39;101132.38;;;5.82;58.54
60489;BME280;46331;49.252;8.904;2024-01-30T02:09:19;101131.56;;;5.81;58.32
60489;BME280;46331;49.252;8.904;2024-01-30T02:10:00;101126.13;;;5.83;58.60
60489;BME280;46331;49.252;8.904;2024-01-30T02:10:41;101127.13;;;5.82;58.46
60489;BME280;46331;49.252;8.904;2024-01-30T02:11:22;101119.53;;;5.87;58.49
60489;BME280;46331;49.252;8.904;2024-01-30T02:12:03;101129.44;;;5.77;57.74
60489;BME280;46331;49.252;8.904;2024-01-30T02:12:44;101121.38;;;5.78;58.04
60489;BME280;46331;49.252;8.904;2024-01-30T02:13:24;101124.47;;;5.82;58.76
60489;BME280;46331;49.252;8.904;2024-01-30T02:14:05;101126.81;;;5.77;57.86
60489;BME280;46331;49.252;8.904;2024-01-30T02:14:46;101125.84;;;5.78;58.16
60489;BME280;46331;49.252;8.904;2024-01-30T02:15:28;101123.38;;;5.76;58.31
60489;BME280;46331;49.252;8.904;2024-01-30T02:16:10;101128.63;;;5.76;57.85
60489;BME280;46331;49.252;8.904;2024-01-30T02:16:51;101126.19;;;5.75;58.17
60489;BME280;46331;49.252;8.904;2024-01-30T02:17:31;101120.91;;;5.75;58.30
60489;BME280;46331;49.252;8.904;2024-01-30T02:18:11;101126.34;;;5.73;57.74
60489;BME280;46331;49.252;8.904;2024-01-30T02:18:52;101129.31;;;5.70;57.88
60489;BME280;46331;49.252;8.904;2024-01-30T02:19:33;101124.91;;;5.62;58.20
60489;BME280;46331;49.252;8.904;2024-01-30T02:20:13;101124.56;;;5.65;58.29
60489;BME280;46331;49.252;8.904;2024-01-30T02:20:56;101124.41;;;5.67;57.98
60489;BME280;46331;49.252;8.904;2024-01-30T02:21:38;101126.88;;;5.60;58.14
60489;BME280;46331;49.252;8.904;2024-01-30T02:22:20;101129.16;;;5.63;58.20
60489;BME280;46331;49.252;8.904;2024-01-30T02:23:00;101120.97;;;5.58;58.21
60489;BME280;46331;49.252;8.904;2024-01-30T02:23:43;101131.78;;;5.63;58.00
60489;BME280;46331;49.252;8.904;2024-01-30T02:24:24;101125.59;;;5.56;58.51
60489;BME280;46331;49.252;8.904;2024-01-30T02:25:05;101135.59;;;5.52;58.21
60489;BME280;46331;49.252;8.904;2024-01-30T02:25:45;101132.84;;;5.46;58.37
60489;BME280;46331;49.252;8.904;2024-01-30T02:26:26;101139.06;;;5.45;58.43
60489;BME280;46331;49.252;8.904;2024-01-30T02:27:07;101128.06;;;5.41;58.58
60489;BME280;46331;49.252;8.904;2024-01-30T02:27:47;101129.91;;;5.32;59.14
60489;BME280;46331;49.252;8.904;2024-01-30T02:28:27;101119.38;;;5.32;59.19
60489;BME280;46331;49.252;8.904;2024-01-30T02:29:08;101125.31;;;5.34;58.79
60489;BME280;46331;49.252;8.904;2024-01-30T02:29:48;101132.06;;;5.29;59.20
60489;BME280;46331;49.252;8.904;2024-01-30T02:30:29;101135.00;;;5.26;59.42
60489;BME280;46331;49.252;8.904;2024-01-30T02:31:09;101132.69;;;5.31;59.34
60489;BME280;46331;49.252;8.904;2024-01-30T02:31:50;101125.81;;;5.30;59.21
60489;BME280;46331;49.252;8.904;2024-01-30T02:32:30;101133.69;;;5.30;59.37
60489;BME280;46331;49.252;8.904;2024-01-30T02:33:11;101124.97;;;5.29;59.28
60489;BME280;46331;49.252;8.904;2024-01-30T02:33:51;101124.97;;;5.29;59.05
60489;BME280;46331;49.252;8.904;2024-01-30T02:34:32;101133.88;;;5.28;59.32
60489;BME280;46331;49.252;8.904;2024-01-30T02:35:12;101129.25;;;5.30;59.42
60489;BME280;46331;49.252;8.904;2024-01-30T02:35:53;101134.81;;;5.35;59.76
60489;BME280;46331;49.252;8.904;2024-01-30T02:36:33;101124.00;;;5.30;59.34
60489;BME280;46331;49.252;8.904;2024-01-30T02:37:14;101122.50;;;5.36;59.42
60489;BME280;46331;49.252;8.904;2024-01-30T02:37:54;101135.31;;;5.39;59.33
60489;BME280;46331;49.252;8.904;2024-01-30T02:38:35;101126.44;;;5.40;59.19
60489;BME280;46331;49.252;8.904;2024-01-30T02:39:15;101130.06;;;5.39;59.23
60489;BME280;46331;49.252;8.904;2024-01-30T02:39:56;101130.06;;;5.39;58.94
60489;BME280;46331;49.252;8.904;2024-01-30T02:40:36;101121.66;;;5.44;59.41
60489;BME280;46331;49.252;8.904;2024-01-30T02:41:17;101123.97;;;5.47;59.57
60489;BME280;46331;49.252;8.904;2024-01-30T02:41:57;101132.66;;;5.47;59.11
60489;BME280;46331;49.252;8.904;2024-01-30T02:42:39;101127.53;;;5.54;59.30
60489;BME280;46331;49.252;8.904;2024-01-30T02:43:19;101125.91;;;5.53;59.58
60489;BME280;46331;49.252;8.904;2024-01-30T02:44:00;101127.53;;;5.54;59.33
60489;BME280;46331;49.252;8.904;2024-01-30T02:44:40;101127.53;;;5.54;58.82
60489;BME280;46331;49.252;8.904;2024-01-30T02:45:21;101120.66;;;5.53;58.43
60489;BME280;46331;49.252;8.904;2024-01-30T02:46:02;101124.59;;;5.49;58.37
60489;BME280;46331;49.252;8.904;2024-01-30T02:46:42;101133.47;;;5.48;58.75
60489;BME280;46331;49.252;8.904;2024-01-30T02:47:23;101128.03;;;5.49;58.83
60489;BME280;46331;49.252;8.904;2024-01-30T02:48:03;101124.94;;;5.46;58.27
60489;BME280;46331;49.252;8.904;2024-01-30T02:48:44;101126.94;;;5.44;58.30
60489;BME280;46331;49.252;8.904;2024-01-30T02:49:24;101133.34;;;5.41;58.27
60489;BME280;46331;49.252;8.904;2024-01-30T02:50:05;101127.91;;;5.43;58.75
60489;BME280;46331;49.252;8.904;2024-01-30T02:50:46;101131.84;;;5.38;58.64
60489;BME280;46331;49.252;8.904;2024-01-30T02:51:27;101125.31;;;5.34;58.68
60489;BME280;46331;49.252;8.904;2024-01-30T02:52:07;101126.28;;;5.33;58.53
60489;BME280;46331;49.252;8.904;2024-01-30T02:52:48;101126.28;;;5.33;59.05
60489;BME280;46331;49.252;8.904;2024-01-30T02:53:28;101123.19;;;5.30;58.66
60489;BME280;46331;49.252;8.904;2024-01-30T02:54:09;101126.44;;;5.32;58.92
60489;BME280;46331;49.252;8.904;2024-01-30T02:54:49;101129.25;;;5.30;58.92
60489;BME280;46331;49.252;8.904;2024-01-30T02:55:30;101123.50;;;5.27;58.55
60489;BME280;46331;49.252;8.904;2024-01-30T02:56:10;101125.47;;;5.25;58.75
60489;BME280;46331;49.252;8.904;2024-01-30T02:56:52;101126.28;;;5.25;59.15
60489;BME280;46331;49.252;8.904;2024-01-30T02:57:32;101120.88;;;5.27;59.45
60489;BME280;46331;49.252;8.904;2024-01-30T02:58:14;101128.91;;;5.25;59.50
60489;BME280;46331;49.252;8.904;2024-01-30T02:58:54;101130.91;;;5.23;58.81
60489;BME280;46331;49.252;8.904;2024-01-30T02:59:35;101134.03;;;5.18;58.98
60489;BME280;46331;49.252;8.904;2024-01-30T03:00:16;101137.16;;;5.14;59.10
60489;BME280;46331;49.252;8.904;2024-01-30T03:00:57;101124.31;;;5.19;59.39
60489;BME280;46331;49.252;8.904;2024-01-30T03:01:44;101122.16;;;5.31;59.03
60489;BME280;46331;49.252;8.904;2024-01-30T03:02:24;101125.31;;;5.10;59.33
60489;BME280;46331;49.252;8.904;2024-01-30T03:03:05;101124.34;;;5.11;59.21
60489;BME280;46331;49.252;8.904;2024-01-30T03:03:45;101123.38;;;5.12;59.57
60489;BME280;46331;49.252;8.904;2024-01-30T03:04:26;101128.47;;;5.13;59.57
60489;BME280;46331;49.252;8.904;2024-01-30T03:05:07;101122.19;;;5.23;59.40
60489;BME280;46331;49.252;8.904;2024-01-30T03:05:48;101123.34;;;5.20;59.87
60489;BME280;46331;49.252;8.904;2024-01-30T03:06:28;101130.41;;;5.19;59.47
60489;BME280;46331;49.252;8.904;2024-01-30T03:07:09;101126.94;;;5.19;59.42
60489;BME280;46331;49.252;8.904;2024-01-30T03:07:50;101122.69;;;5.18;59.07
60489;BME280;46331;49.252;8.904;2024-01-30T03:08:30;101117.44;;;5.18;59.09
60489;BME280;46331;49.252;8.904;2024-01-30T03:09:11;101117.59;;;5.16;59.08
60489;BME280;46331;49.252;8.904;2024-01-30T03:09:51;101114.13;;;5.16;59.03
60489;BME280;46331;49.252;8.904;2024-01-30T03:10:32;101118.09;;;5.20;59.67
60489;BME280;46331;49.252;8.904;2024-01-30T03:11:12;101118.59;;;5.15;59.44
60489;BME280;46331;49.252;8.904;2024-01-30T03:11:53;101120.22;;;5.16;59.70
60489;BME280;46331;49.252;8.904;2024-01-30T03:12:33;101121.03;;;5.17;59.46
60489;BME280;46331;49.252;8.904;2024-01-30T03:13:14;101115.47;;;5.12;59.36
60489;BME280;46331;49.252;8.904;2024-01-30T03:13:54;101118.25;;;5.18;59.49
60489;BME280;46331;49.252;8.904;2024-01-30T03:14:35;101116.13;;;5.14;59.44
60489;BME280;46331;49.252;8.904;2024-01-30T03:15:15;101117.94;;;5.05;59.42
60489;BME280;46331;49.252;8.904;2024-01-30T03:15:56;101118.75;;;5.14;59.37
60489;BME280;46331;49.252;8.904;2024-01-30T03:16:37;101118.25;;;5.18;59.90
60489;BME280;46331;49.252;8.904;2024-01-30T03:17:18;101121.84;;;5.17;59.61
60489;BME280;46331;49.252;8.904;2024-01-30T03:17:58;101121.03;;;5.17;59.22
60489;BME280;46331;49.252;8.904;2024-01-30T03:18:39;101111.00;;;5.20;59.58
60489;BME280;46331;49.252;8.904;2024-01-30T03:19:19;101124.16;;;5.20;59.10
60489;BME280;46331;49.252;8.904;2024-01-30T03:20:00;101121.69;;;5.19;59.10
60489;BME280;46331;49.252;8.904;2024-01-30T03:20:40;101123.03;;;5.15;59.28
60489;BME280;46331;49.252;8.904;2024-01-30T03:21:21;101122.19;;;5.14;59.47
60489;BME280;46331;49.252;8.904;2024-01-30T03:22:02;101122.53;;;5.11;59.42
60489;BME280;46331;49.252;8.904;2024-01-30T03:22:42;101123.69;;;5.09;59.30
60489;BME280;46331;49.252;8.904;2024-01-30T03:23:23;101124.50;;;5.09;59.38
60489;BME280;46331;49.252;8.904;2024-01-30T03:24:03;101133.22;;;5.10;59.58
60489;BME280;46331;49.252;8.904;2024-01-30T03:24:44;101128.63;;;5.04;59.47
60489;BME280;46331;49.252;8.904;2024-01-30T03:25:24;101129.28;;;5.06;59.41
60489;BME280;46331;49.252;8.904;2024-01-30T03:26:05;101126.66;;;5.06;59.70
60489;BME280;46331;49.252;8.904;2024-01-30T03:26:47;101128.13;;;5.16;60.08
60489;BME280;46331;49.252;8.904;2024-01-30T03:27:28;101127.94;;;5.10;59.51
60489;BME280;46331;49.252;8.904;2024-01-30T03:28:09;101124.19;;;5.12;59.72
60489;BME280;46331;49.252;8.904;2024-01-30T03:28:49;101121.53;;;5.12;60.04
60489;BME280;46331;49.252;8.904;2024-01-30T03:29:30;101127.47;;;5.06;59.71
60489;BME280;46331;49.252;8.904;2024-01-30T03:30:10;101125.81;;;5.05;59.72
60489;BME280;46331;49.252;8.904;2024-01-30T03:30:51;101123.69;;;5.09;59.88
60489;BME280;46331;49.252;8.904;2024-01-30T03:31:31;101131.75;;;5.07;59.71
60489;BME280;46331;49.252;8.904;2024-01-30T03:32:12;101126.97;;;5.11;59.89
60489;BME280;46331;49.252;8.904;2024-01-30T03:32:52;101126.00;;;5.12;59.82
60489;BME280;46331;49.252;8.904;2024-01-30T03:33:33;101125.47;;;5.08;59.82
60489;BME280;46331;49.252;8.904;2024-01-30T03:34:13;101128.28;;;5.15;60.06
60489;BME280;46331;49.252;8.904;2024-01-30T03:34:54;101125.31;;;5.10;59.46
60489;BME280;46331;49.252;8.904;2024-01-30T03:35:34;101126.00;;;5.12;59.56
60489;BME280;46331;49.252;8.904;2024-01-30T03:36:16;101132.72;;;5.14;59.54